Time;durP1;ratioP1;P1;durP2;ratioP2;P2;SDS_P1;SDS_P2;PMS_P1;PMS_P2;Temp;Humidity;BMP_temperature;BMP_pressure;BME280_temperature;BME280_humidity;BME280_pressure;Samples;Min_cycle;Max_cycle;Signal;HPM_P1;HPM_P2
2021/09/04 00:01:57;;;;;;;29.27;21.60;;;;;;;15.65;100.00;101800.81;4900024;30;20040;-67
2021/09/04 00:04:28;;;;;;;27.27;20.73;;;;;;;15.55;100.00;101798.16;4902731;30;20299;-67
2021/09/04 00:06:59;;;;;;;25.10;21.63;;;;;;;15.53;100.00;101800.09;4910306;30;20481;-67
2021/09/04 00:09:31;;;;;;;27.92;21.67;;;;;;;15.49;100.00;101790.78;4899776;30;20025;-67
2021/09/04 00:12:03;;;;;;;28.48;21.98;;;;;;;15.46;100.00;101795.53;4905435;30;20029;-67
2021/09/04 00:14:35;;;;;;;26.77;21.75;;;;;;;15.44;100.00;101797.44;4905125;30;20036;-68
2021/09/04 00:17:06;;;;;;;28.73;21.85;;;;;;;15.45;100.00;101789.38;4908494;30;20029;-67
2021/09/04 00:19:38;;;;;;;28.63;22.02;;;;;;;15.39;100.00;101789.13;4894798;30;20041;-67
2021/09/04 00:22:09;;;;;;;29.17;21.98;;;;;;;15.35;100.00;101791.19;4907397;30;20531;-67
2021/09/04 00:24:40;;;;;;;28.63;22.00;;;;;;;15.33;100.00;101782.56;4897265;30;20041;-67
2021/09/04 00:27:12;;;;;;;31.70;22.45;;;;;;;15.30;100.00;101783.69;4908215;30;20043;-67
2021/09/04 00:29:43;;;;;;;29.17;22.15;;;;;;;15.21;100.00;101784.50;4900856;30;20044;-67
2021/09/04 00:32:15;;;;;;;27.48;21.55;;;;;;;15.23;100.00;101785.22;4904977;30;20029;-67
2021/09/04 00:34:46;;;;;;;30.17;22.08;;;;;;;15.19;100.00;101789.09;4910079;30;20492;-67
2021/09/04 00:37:18;;;;;;;31.83;20.95;;;;;;;15.14;100.00;101785.19;4898042;30;20410;-67
2021/09/04 00:39:49;;;;;;;27.30;22.00;;;;;;;15.08;100.00;101782.13;4901794;30;20053;-67
2021/09/04 00:42:21;;;;;;;31.30;22.70;;;;;;;15.05;100.00;101785.03;4906151;30;20114;-67
2021/09/04 00:44:52;;;;;;;30.73;22.45;;;;;;;15.05;100.00;101781.56;4906276;30;20037;-67
2021/09/04 00:47:24;;;;;;;28.73;23.20;;;;;;;14.97;100.00;101782.25;4904879;30;20030;-67
2021/09/04 00:49:55;;;;;;;30.17;22.00;;;;;;;15.01;100.00;101781.00;4900212;30;20033;-67
2021/09/04 00:52:27;;;;;;;29.20;21.90;;;;;;;14.97;100.00;101781.44;4909332;30;20283;-67
2021/09/04 00:54:58;;;;;;;28.98;22.33;;;;;;;14.95;100.00;101778.91;4902186;30;20037;-67
2021/09/04 00:57:29;;;;;;;30.85;23.00;;;;;;;14.92;100.00;101771.25;4899528;30;20044;-67
2021/09/04 01:00:01;;;;;;;33.60;22.95;;;;;;;14.88;100.00;101769.03;4901534;30;20596;-67
2021/09/04 01:02:32;;;;;;;27.77;21.90;;;;;;;14.87;100.00;101776.13;4906608;30;20473;-67
2021/09/04 01:05:05;;;;;;;29.67;22.05;;;;;;;14.88;100.00;101774.31;4901561;30;20040;-67
2021/09/04 01:07:38;;;;;;;31.23;22.73;;;;;;;14.77;100.00;101768.19;4901846;30;20032;-67
2021/09/04 01:10:11;;;;;;;32.38;22.70;;;;;;;14.77;100.00;101770.84;4907908;30;20301;-67
2021/09/04 01:12:42;;;;;;;30.90;22.48;;;;;;;14.75;100.00;101774.56;4899642;30;20049;-67
2021/09/04 01:15:14;;;;;;;32.38;22.45;;;;;;;14.66;100.00;101770.06;4902931;30;20396;-67
2021/09/04 01:17:45;;;;;;;25.83;21.40;;;;;;;14.63;100.00;101765.09;4908062;30;20034;-67
2021/09/04 01:20:17;;;;;;;30.35;22.33;;;;;;;14.56;100.00;101770.06;4909226;30;20104;-67
2021/09/04 01:22:48;;;;;;;30.92;22.33;;;;;;;14.51;100.00;101767.00;4909130;30;20051;-67
2021/09/04 01:25:25;;;;;;;30.58;22.35;;;;;;;14.55;100.00;101761.31;4902168;30;20040;-67
2021/09/04 01:28:02;;;;;;;31.88;22.30;;;;;;;14.46;100.00;101767.34;4911599;30;20035;-67
2021/09/04 01:30:34;;;;;;;27.92;21.98;;;;;;;14.44;100.00;101766.66;4910178;30;20029;-67
2021/09/04 01:33:05;;;;;;;29.63;21.77;;;;;;;14.49;100.00;101760.97;4899914;30;20477;-67
2021/09/04 01:35:36;;;;;;;28.05;21.85;;;;;;;14.42;100.00;101759.84;4906487;30;20099;-67
2021/09/04 01:38:08;;;;;;;27.17;21.67;;;;;;;14.36;100.00;101763.84;4907097;30;20037;-67
2021/09/04 01:40:39;;;;;;;26.60;21.52;;;;;;;14.38;100.00;101755.78;4902232;30;20385;-67
2021/09/04 01:43:10;;;;;;;29.08;21.30;;;;;;;14.32;100.00;101758.00;4907063;30;20049;-67
2021/09/04 01:45:42;;;;;;;28.02;21.02;;;;;;;14.31;100.00;101752.84;4906008;30;20041;-67
2021/09/04 01:48:13;;;;;;;30.15;21.65;;;;;;;14.36;100.00;101748.88;4902988;30;20041;-67
2021/09/04 01:50:44;;;;;;;29.52;22.23;;;;;;;14.28;100.00;101746.06;4906301;30;20112;-67
2021/09/04 01:53:15;;;;;;;29.08;21.38;;;;;;;14.24;100.00;101749.91;4912723;30;20040;-67
2021/09/04 01:55:47;;;;;;;26.02;21.55;;;;;;;14.29;100.00;101741.63;4908235;30;20039;-66
2021/09/04 01:58:18;;;;;;;28.42;22.02;;;;;;;14.28;100.00;101746.06;4900683;30;20036;-67
2021/09/04 02:00:49;;;;;;;30.58;21.63;;;;;;;14.25;100.00;101742.84;4903478;30;20033;-67
2021/09/04 02:03:20;;;;;;;28.85;21.52;;;;;;;14.25;100.00;101745.50;4908558;30;20037;-67
2021/09/04 02:05:52;;;;;;;28.25;21.58;;;;;;;14.13;100.00;101734.19;4903020;30;20033;-67
2021/09/04 02:08:23;;;;;;;26.27;21.52;;;;;;;14.07;100.00;101740.81;4905321;30;20461;-67
2021/09/04 02:10:54;;;;;;;31.33;21.30;;;;;;;14.05;100.00;101740.13;4910605;30;20029;-67
2021/09/04 02:13:27;;;;;;;24.92;20.60;;;;;;;14.04;100.00;101729.69;4900029;30;20091;-67
2021/09/04 02:15:59;;;;;;;27.83;22.00;;;;;;;14.07;100.00;101726.81;4899967;30;20510;-67
2021/09/04 02:18:33;;;;;;;27.35;20.85;;;;;;;14.01;100.00;101729.97;4901889;30;20116;-67
2021/09/04 02:21:04;;;;;;;31.73;23.42;;;;;;;13.97;100.00;101731.19;4905719;30;20116;-67
2021/09/04 02:23:36;;;;;;;28.58;22.13;;;;;;;13.93;100.00;101725.34;4902778;30;20112;-66
2021/09/04 02:26:07;;;;;;;28.75;21.42;;;;;;;13.89;100.00;101723.94;4901562;30;20037;-67
2021/09/04 02:28:39;;;;;;;27.90;22.02;;;;;;;13.91;100.00;101723.81;4909457;30;20540;-67
2021/09/04 02:31:10;;;;;;;32.53;22.00;;;;;;;13.86;100.00;101726.81;4902380;30;20485;-67
2021/09/04 02:33:41;;;;;;;30.73;22.00;;;;;;;13.83;100.00;101735.84;4900861;30;20497;-67
2021/09/04 02:36:12;;;;;;;28.00;21.02;;;;;;;13.79;100.00;101731.78;4905034;30;20061;-67
2021/09/04 02:38:44;;;;;;;29.75;22.85;;;;;;;13.81;100.00;101732.47;4899822;30;20448;-67
2021/09/04 02:41:15;;;;;;;25.98;20.65;;;;;;;13.80;100.00;101732.63;4905851;30;20056;-67
2021/09/04 02:43:47;;;;;;;31.50;22.95;;;;;;;13.77;100.00;101731.06;4906062;30;20057;-67
2021/09/04 02:46:18;;;;;;;32.28;21.50;;;;;;;13.74;100.00;101719.97;4906898;30;20444;-67
2021/09/04 02:48:49;;;;;;;28.88;22.73;;;;;;;13.72;100.00;101721.91;4900468;30;20056;-67
2021/09/04 02:51:20;;;;;;;30.67;21.25;;;;;;;13.70;100.00;101719.38;4902927;30;20060;-67
2021/09/04 02:53:52;;;;;;;30.33;21.63;;;;;;;13.64;100.00;101722.56;4907012;30;20496;-67
2021/09/04 02:56:23;;;;;;;29.23;21.77;;;;;;;13.65;100.00;101734.75;4906261;30;20535;-67
2021/09/04 02:58:54;;;;;;;32.08;22.45;;;;;;;13.66;100.00;101725.03;4898243;30;20037;-67
2021/09/04 03:01:26;;;;;;;28.67;21.95;;;;;;;13.61;100.00;101726.25;4909764;30;20040;-67
2021/09/04 03:03:57;;;;;;;29.20;21.17;;;;;;;13.61;100.00;101721.00;4905332;30;20481;-67
2021/09/04 03:06:28;;;;;;;31.02;22.55;;;;;;;13.58;100.00;101723.06;4905228;30;20041;-67
2021/09/04 03:09:00;;;;;;;30.15;21.80;;;;;;;13.57;100.00;101724.03;4903479;30;20029;-67
2021/09/04 03:11:31;;;;;;;30.85;22.13;;;;;;;13.57;100.00;101718.75;4902966;30;20145;-66
2021/09/04 03:14:03;;;;;;;30.02;21.02;;;;;;;13.53;100.00;101717.34;4910637;30;20070;-67
2021/09/04 03:16:34;;;;;;;29.58;21.65;;;;;;;13.55;100.00;101712.78;4903549;30;20037;-67
2021/09/04 03:19:05;;;;;;;32.47;22.38;;;;;;;13.52;100.00;101720.91;4910795;30;20389;-67
2021/09/04 03:21:36;;;;;;;31.05;22.25;;;;;;;13.53;100.00;101717.34;4899511;30;20076;-67
2021/09/04 03:24:08;;;;;;;31.48;22.75;;;;;;;13.47;100.00;101717.84;4905128;30;20037;-67
2021/09/04 03:26:39;;;;;;;29.38;22.85;;;;;;;13.48;100.00;101716.88;4900269;30;20045;-67
2021/09/04 03:29:10;;;;;;;29.85;21.67;;;;;;;13.46;100.00;101722.28;4898198;30;20496;-67
2021/09/04 03:31:42;;;;;;;29.45;23.20;;;;;;;13.39;100.00;101719.31;4898850;30;20043;-67
2021/09/04 03:34:13;;;;;;;31.80;21.83;;;;;;;13.39;100.00;101724.56;4903456;30;20098;-67
2021/09/04 03:36:45;;;;;;;28.88;21.85;;;;;;;13.42;100.00;101730.56;4898994;30;20043;-67
2021/09/04 03:39:16;;;;;;;29.20;21.95;;;;;;;13.43;100.00;101732.22;4909154;30;20066;-67
2021/09/04 03:41:47;;;;;;;31.77;22.80;;;;;;;13.36;100.00;101735.34;4893455;30;20057;-67
2021/09/04 03:44:19;;;;;;;28.48;20.38;;;;;;;13.38;100.00;101736.06;4900320;30;20064;-67
2021/09/04 03:46:50;;;;;;;28.05;22.17;;;;;;;13.32;100.00;101725.22;4903352;30;20124;-67
2021/09/04 03:49:21;;;;;;;28.75;22.23;;;;;;;13.43;100.00;101729.59;4905914;30;20034;-67
2021/09/04 03:51:52;;;;;;;33.75;23.05;;;;;;;13.39;100.00;101732.47;4899104;30;20033;-67
2021/09/04 03:54:24;;;;;;;27.77;21.77;;;;;;;13.39;100.00;101735.09;4903458;30;20072;-67
2021/09/04 03:56:55;;;;;;;34.20;23.67;;;;;;;13.35;100.00;101731.06;4908339;30;20099;-67
2021/09/04 03:59:26;;;;;;;27.92;22.05;;;;;;;13.39;100.00;101729.00;4901613;30;20065;-66
2021/09/04 04:01:57;;;;;;;34.55;24.00;;;;;;;13.39;100.00;101729.00;4894005;30;20125;-67
2021/09/04 04:04:29;;;;;;;32.47;24.50;;;;;;;13.38;100.00;101725.53;4905463;30;20120;-66
2021/09/04 04:07:00;;;;;;;31.52;22.63;;;;;;;13.42;100.00;101726.13;4903426;30;20063;-67
2021/09/04 04:09:31;;;;;;;30.80;23.52;;;;;;;13.44;100.00;101724.19;4894831;30;20030;-67
2021/09/04 04:12:03;;;;;;;30.02;23.25;;;;;;;13.46;100.00;101726.72;4909881;30;20519;-67
2021/09/04 04:14:34;;;;;;;34.30;24.65;;;;;;;13.47;100.00;101733.63;4903195;30;20043;-66
2021/09/04 04:17:06;;;;;;;37.75;25.58;;;;;;;13.47;100.00;101731.00;4904907;30;20029;-67
2021/09/04 04:19:37;;;;;;;36.92;25.13;;;;;;;13.42;100.00;101734.03;4903647;30;20052;-66
2021/09/04 04:22:08;;;;;;;36.17;25.42;;;;;;;13.39;100.00;101735.09;4907390;30;20047;-67
2021/09/04 04:24:39;;;;;;;35.60;25.90;;;;;;;13.45;100.00;101740.81;4904468;30;20103;-67
2021/09/04 04:27:11;;;;;;;36.28;26.00;;;;;;;13.42;100.00;101741.09;4898910;30;20052;-66
2021/09/04 04:29:42;;;;;;;34.33;25.92;;;;;;;13.46;100.00;101738.06;4908460;30;20040;-67
2021/09/04 04:32:13;;;;;;;36.35;26.00;;;;;;;13.45;100.00;101744.31;4904608;30;20040;-66
2021/09/04 04:34:45;;;;;;;35.25;25.83;;;;;;;13.42;100.00;101749.00;4899829;30;20053;-67
2021/09/04 04:37:16;;;;;;;35.30;27.48;;;;;;;13.46;100.00;101750.41;4906399;30;20028;-67
2021/09/04 04:39:47;;;;;;;40.42;27.83;;;;;;;13.39;100.00;101750.06;4907094;30;20040;-67
2021/09/04 04:42:18;;;;;;;41.90;28.30;;;;;;;13.32;100.00;101741.00;4903966;30;20575;-67
2021/09/04 04:44:50;;;;;;;40.30;27.98;;;;;;;13.34;100.00;101752.25;4898736;30;20516;-67
2021/09/04 04:47:21;;;;;;;38.63;28.35;;;;;;;13.35;100.00;101748.66;4905490;30;20488;-67
2021/09/04 04:49:52;;;;;;;46.22;29.05;;;;;;;13.34;100.00;101752.25;4904206;30;20029;-67
2021/09/04 04:52:24;;;;;;;44.05;29.98;;;;;;;13.26;100.00;101757.28;4899328;30;20033;-67
2021/09/04 04:54:55;;;;;;;43.03;29.38;;;;;;;13.32;100.00;101748.91;4909238;30;20076;-67
2021/09/04 04:57:26;;;;;;;44.78;30.42;;;;;;;13.31;100.00;101755.13;4909314;30;20040;-67
2021/09/04 04:59:57;;;;;;;42.30;29.38;;;;;;;13.33;100.00;101759.31;4902126;30;20069;-67
2021/09/04 05:02:29;;;;;;;43.25;29.92;;;;;;;13.35;100.00;101746.84;4898264;30;20045;-66
2021/09/04 05:05:00;;;;;;;51.47;31.98;;;;;;;13.32;100.00;101757.63;4894472;30;20059;-67
2021/09/04 05:07:31;;;;;;;48.03;31.40;;;;;;;13.29;100.00;101757.88;4893265;30;20133;-67
2021/09/04 05:10:04;;;;;;;52.45;29.90;;;;;;;13.30;100.00;101756.09;4897148;30;20473;-66
2021/09/04 05:12:35;;;;;;;49.78;33.00;;;;;;;13.28;100.00;101761.47;4901579;30;20079;-67
2021/09/04 05:15:07;;;;;;;49.53;31.77;;;;;;;13.30;100.00;101764.81;4902144;30;20067;-67
2021/09/04 05:17:38;;;;;;;50.17;32.20;;;;;;;13.26;100.00;101773.06;4904117;30;20564;-66
2021/09/04 05:20:10;;;;;;;44.25;31.40;;;;;;;13.28;100.00;101771.16;4900746;30;20128;-67
2021/09/04 05:22:45;;;;;;;47.22;31.65;;;;;;;13.32;100.00;101777.84;4896682;30;20032;-67
2021/09/04 05:25:17;;;;;;;46.30;30.60;;;;;;;13.30;100.00;101779.78;4902279;30;20029;-66
2021/09/04 05:27:48;;;;;;;43.88;31.20;;;;;;;13.30;100.00;101780.63;4904017;30;20072;-66
2021/09/04 05:30:19;;;;;;;41.78;28.65;;;;;;;13.24;100.00;101783.72;4901362;30;20033;-66
2021/09/04 05:32:51;;;;;;;37.72;27.15;;;;;;;13.27;100.00;101783.50;4899134;30;20462;-66
2021/09/04 05:35:22;;;;;;;44.88;28.50;;;;;;;13.19;100.00;101779.78;4902136;30;20025;-69
2021/09/04 05:37:53;;;;;;;42.80;28.42;;;;;;;13.17;100.00;101787.78;4904809;30;20056;-69
2021/09/04 05:40:25;;;;;;;42.80;28.27;;;;;;;13.18;100.00;101783.34;4903040;30;20045;-69
2021/09/04 05:42:56;;;;;;;40.28;28.70;;;;;;;13.20;100.00;101779.66;4898854;30;20394;-67
2021/09/04 05:45:27;;;;;;;39.85;28.75;;;;;;;13.24;100.00;101781.09;4901858;30;20046;-67
2021/09/04 05:47:58;;;;;;;42.47;28.52;;;;;;;13.22;100.00;101788.28;4899294;30;20029;-67
2021/09/04 05:50:30;;;;;;;43.95;29.88;;;;;;;13.22;100.00;101793.53;4897291;30;20040;-67
2021/09/04 05:53:02;;;;;;;42.08;28.48;;;;;;;13.19;100.00;101793.78;4904403;30;20040;-66
2021/09/04 05:55:33;;;;;;;43.50;28.45;;;;;;;13.23;100.00;101794.38;4899009;30;20476;-67
2021/09/04 05:58:04;;;;;;;36.88;26.27;;;;;;;13.26;100.00;101795.00;4903918;30;20025;-67
2021/09/04 06:00:36;;;;;;;40.30;28.02;;;;;;;13.26;100.00;101789.72;4904336;30;20037;-67
2021/09/04 06:03:07;;;;;;;43.28;27.85;;;;;;;13.24;100.00;101796.06;4900559;30;20035;-67
2021/09/04 06:05:38;;;;;;;42.50;29.00;;;;;;;13.27;100.00;101794.00;4910039;30;20037;-67
2021/09/04 06:08:09;;;;;;;51.58;30.60;;;;;;;13.24;100.00;101785.53;4901894;30;20068;-67
2021/09/04 06:10:41;;;;;;;43.05;27.75;;;;;;;13.24;100.00;101789.00;4903329;30;20351;-67
2021/09/04 06:13:12;;;;;;;43.80;28.55;;;;;;;13.19;100.00;101780.63;4897815;30;20030;-67
2021/09/04 06:15:44;;;;;;;41.75;28.40;;;;;;;13.16;100.00;101775.59;4904395;30;20032;-67
2021/09/04 06:18:15;;;;;;;44.15;27.98;;;;;;;13.15;100.00;101779.19;4905767;30;20064;-67
2021/09/04 06:20:46;;;;;;;46.92;29.27;;;;;;;13.12;100.00;101777.63;4910417;30;20065;-66
2021/09/04 06:23:18;;;;;;;39.95;26.60;;;;;;;13.15;100.00;101781.81;4911143;30;20087;-68
2021/09/04 06:25:49;;;;;;;39.25;27.17;;;;;;;13.15;100.00;101782.66;4898192;30;20063;-67
2021/09/04 06:28:20;;;;;;;44.92;28.25;;;;;;;13.23;100.00;101784.69;4911405;30;20032;-67
2021/09/04 06:30:52;;;;;;;41.35;28.38;;;;;;;13.27;100.00;101786.13;4905282;30;20108;-68
2021/09/04 06:33:23;;;;;;;42.25;28.00;;;;;;;13.31;100.00;101790.16;4906397;30;20030;-67
2021/09/04 06:35:55;;;;;;;39.72;27.90;;;;;;;13.37;100.00;101787.06;4905203;30;20124;-66
2021/09/04 06:38:26;;;;;;;44.15;29.25;;;;;;;13.31;100.00;101790.16;4905481;30;20640;-67
2021/09/04 06:40:57;;;;;;;40.13;25.65;;;;;;;13.34;100.00;101781.19;4908401;30;20048;-67
2021/09/04 06:43:29;;;;;;;44.28;29.90;;;;;;;13.38;100.00;101788.72;4905846;30;20107;-66
2021/09/04 06:46:00;;;;;;;49.38;29.35;;;;;;;13.42;100.00;101786.66;4907032;30;20040;-67
2021/09/04 06:48:31;;;;;;;40.30;27.20;;;;;;;13.45;100.00;101790.81;4906209;30;20543;-67
2021/09/04 06:51:03;;;;;;;43.78;28.30;;;;;;;13.44;100.00;101794.44;4900078;30;20416;-67
2021/09/04 06:53:34;;;;;;;41.50;26.35;;;;;;;13.49;100.00;101798.38;4894708;30;20055;-66
2021/09/04 06:56:05;;;;;;;42.13;28.80;;;;;;;13.54;100.00;101800.63;4910661;30;20044;-67
2021/09/04 06:58:36;;;;;;;40.03;28.48;;;;;;;13.48;100.00;101803.75;4910382;30;20035;-67
2021/09/04 07:01:08;;;;;;;38.10;26.05;;;;;;;13.48;100.00;101809.00;4900426;30;20037;-66
2021/09/04 07:03:39;;;;;;;42.97;26.70;;;;;;;13.49;100.00;101808.06;4903971;30;20037;-67
2021/09/04 07:06:10;;;;;;;35.25;25.80;;;;;;;13.59;100.00;101808.97;4904167;30;20033;-67
2021/09/04 07:08:41;;;;;;;37.88;27.85;;;;;;;13.60;100.00;101806.22;4906986;30;20119;-67
2021/09/04 07:11:13;;;;;;;39.65;27.63;;;;;;;13.61;100.00;101810.53;4907992;30;20060;-67
2021/09/04 07:13:44;;;;;;;41.30;27.13;;;;;;;13.66;100.00;101807.50;4911156;30;20026;-67
2021/09/04 07:16:15;;;;;;;40.85;28.60;;;;;;;13.67;100.00;101805.69;4906990;30;20029;-67
2021/09/04 07:18:48;;;;;;;41.83;26.55;;;;;;;13.61;100.00;101813.16;4900646;30;20064;-67
2021/09/04 07:21:19;;;;;;;39.70;26.90;;;;;;;13.68;100.00;101810.88;4899586;30;20120;-67
2021/09/04 07:23:50;;;;;;;38.67;28.45;;;;;;;13.68;100.00;101815.28;4907396;30;20477;-67
2021/09/04 07:26:21;;;;;;;37.33;26.63;;;;;;;13.74;100.00;101805.06;4905234;30;20107;-67
2021/09/04 07:28:53;;;;;;;39.42;27.02;;;;;;;13.71;100.00;101805.31;4894582;30;20058;-66
2021/09/04 07:31:24;;;;;;;36.17;25.88;;;;;;;13.73;100.00;101803.41;4910600;30;20033;-67
2021/09/04 07:33:55;;;;;;;37.20;26.80;;;;;;;13.73;100.00;101811.31;4903410;30;20029;-67
2021/09/04 07:36:27;;;;;;;36.95;27.55;;;;;;;13.76;100.00;101823.41;4906886;30;20036;-67
2021/09/04 07:38:58;;;;;;;36.50;25.77;;;;;;;13.75;100.00;101824.34;4902979;30;20044;-67
2021/09/04 07:41:30;;;;;;;40.50;27.73;;;;;;;13.68;100.00;101817.94;4909204;30;20405;-67
2021/09/04 07:44:02;;;;;;;35.95;24.95;;;;;;;13.79;100.00;101821.34;4892984;30;20030;-66
2021/09/04 07:46:33;;;;;;;36.28;25.02;;;;;;;13.79;100.00;101833.69;4902181;30;20036;-67
2021/09/04 07:49:05;;;;;;;33.20;24.15;;;;;;;13.80;100.00;101835.34;4906846;30;20025;-67
2021/09/04 07:51:36;;;;;;;30.15;21.35;;;;;;;13.80;100.00;101833.53;4905641;30;20048;-67
2021/09/04 07:54:07;;;;;;;31.30;23.60;;;;;;;13.85;100.00;101830.53;4899978;30;20432;-67
2021/09/04 07:56:38;;;;;;;28.50;22.13;;;;;;;13.80;100.00;101836.19;4902113;30;20519;-67
2021/09/04 07:59:10;;;;;;;28.90;21.08;;;;;;;13.81;100.00;101837.00;4905858;30;20029;-67
2021/09/04 08:01:41;;;;;;;28.42;21.17;;;;;;;13.83;100.00;101835.09;4899281;30;20036;-67
2021/09/04 08:04:14;;;;;;;26.50;20.40;;;;;;;13.84;100.00;101839.41;4903025;30;20065;-67
2021/09/04 08:06:45;;;;;;;25.75;20.25;;;;;;;13.78;100.00;101830.19;4903217;30;20485;-67
2021/09/04 08:09:16;;;;;;;28.38;21.77;;;;;;;13.88;100.00;101838.19;4906239;30;20052;-67
2021/09/04 08:11:48;;;;;;;27.05;19.98;;;;;;;13.88;100.00;101833.75;4910188;30;20029;-66
2021/09/04 08:14:19;;;;;;;27.95;19.83;;;;;;;13.88;100.00;101843.44;4906122;30;20056;-67
2021/09/04 08:16:50;;;;;;;26.73;19.58;;;;;;;13.97;100.00;101836.56;4906659;30;20044;-67
2021/09/04 08:19:21;;;;;;;25.40;18.98;;;;;;;13.94;100.00;101837.69;4898665;30;20040;-67
2021/09/04 08:21:53;;;;;;;25.20;19.58;;;;;;;13.94;100.00;101834.19;4904114;30;20128;-66
2021/09/04 08:24:24;;;;;;;26.85;19.67;;;;;;;13.86;100.00;101816.38;4896866;30;20047;-67
2021/09/04 08:26:55;;;;;;;26.17;20.08;;;;;;;13.95;100.00;101827.97;4906550;30;20037;-67
2021/09/04 08:29:27;;;;;;;27.60;20.25;;;;;;;13.99;100.00;101837.28;4909723;30;20044;-66
2021/09/04 08:31:58;;;;;;;27.02;19.73;;;;;;;14.01;100.00;101828.28;4896581;30;20061;-69
2021/09/04 08:34:30;;;;;;;30.52;21.35;;;;;;;14.03;100.00;101833.44;4902902;30;20327;-67
2021/09/04 08:37:03;;;;;;;25.52;19.05;;;;;;;14.01;100.00;101838.81;4907000;30;20499;-67
2021/09/04 08:39:34;;;;;;;25.45;19.13;;;;;;;14.12;100.00;101835.28;4905454;30;20033;-67
2021/09/04 08:42:06;;;;;;;25.37;19.60;;;;;;;14.11;100.00;101838.88;4896979;30;20505;-67
2021/09/04 08:44:38;;;;;;;26.90;19.92;;;;;;;14.11;100.00;101845.00;4908225;30;20306;-69
2021/09/04 08:47:11;;;;;;;27.20;19.58;;;;;;;14.19;100.00;101846.97;4898904;30;20042;-66
2021/09/04 08:49:43;;;;;;;25.25;18.40;;;;;;;14.27;100.00;101849.81;4898971;30;20500;-67
2021/09/04 08:52:18;;;;;;;28.48;19.88;;;;;;;14.29;100.00;101837.34;4903545;30;20033;-67
2021/09/04 08:54:49;;;;;;;26.73;19.98;;;;;;;14.26;100.00;101848.13;4903516;30;20038;-67
2021/09/04 08:57:21;;;;;;;27.75;20.02;;;;;;;14.34;100.00;101845.69;4898220;30;20050;-66
2021/09/04 08:59:53;;;;;;;26.23;18.63;;;;;;;14.31;100.00;101845.94;4904519;30;20040;-66
2021/09/04 09:02:28;;;;;;;27.15;21.00;;;;;;;14.37;100.00;101844.59;4908663;30;20025;-67
2021/09/04 09:05:06;;;;;;;28.00;20.38;;;;;;;14.35;100.00;101844.72;4901178;30;20044;-67
2021/09/04 09:07:45;;;;;;;26.63;20.63;;;;;;;14.43;100.00;101840.59;4895442;30;20133;-66
2021/09/04 09:10:19;;;;;;;23.95;18.90;;;;;;;14.47;100.00;101842.00;4907999;30;20025;-70
2021/09/04 09:12:51;;;;;;;29.10;21.23;;;;;;;14.44;100.00;101837.84;4903642;30;20033;-67
2021/09/04 09:15:31;;;;;;;25.85;19.02;;;;;;;14.68;100.00;101836.72;4898051;30;20095;-68
2021/09/04 09:18:13;;;;;;;29.48;21.23;;;;;;;14.69;100.00;101844.50;4899990;30;20037;-68
2021/09/04 09:20:56;;;;;;;29.85;21.95;;;;;;;14.73;100.00;101845.06;4902551;30;20124;-68
2021/09/04 09:23:28;;;;;;;33.40;22.73;;;;;;;14.76;100.00;101853.56;4900855;30;20053;-67
2021/09/04 09:26:10;;;;;;;28.17;21.88;;;;;;;14.73;100.00;101847.72;4905622;30;20033;-69
2021/09/04 09:28:41;;;;;;;30.08;21.42;;;;;;;14.63;100.00;101839.78;4901435;30;20396;-67
2021/09/04 09:31:13;;;;;;;28.52;20.70;;;;;;;14.73;100.00;101843.25;4898521;30;20037;-67
2021/09/04 09:33:44;;;;;;;30.95;22.33;;;;;;;14.66;100.00;101843.94;4907143;30;20048;-66
2021/09/04 09:36:17;;;;;;;28.77;22.38;;;;;;;14.67;100.00;101849.09;4910650;30;20108;-67
2021/09/04 09:38:48;;;;;;;;;;;;;;;15.04;100.00;101843.25;4903045;30;20044;-66
2021/09/04 09:41:19;;;;;;;25.67;19.37;;;;;;;14.99;100.00;101842.81;4904340;30;19923;-67
2021/09/04 09:43:51;;;;;;;27.43;21.43;;;;;;;15.06;100.00;101847.41;4905707;30;20057;-67
2021/09/04 09:46:22;;;;;;;29.17;21.60;;;;;;;15.16;100.00;101851.91;4899743;30;20309;-67
2021/09/04 09:48:55;;;;;;;32.78;24.50;;;;;;;15.18;100.00;101853.41;4907679;30;20045;-66
2021/09/04 09:51:27;;;;;;;;;;;;;;;15.43;100.00;101851.25;4913567;30;20098;-66
2021/09/04 09:53:58;;;;;;;32.35;23.27;;;;;;;15.15;100.00;101839.66;4909375;30;19918;-68
2021/09/04 09:56:30;;;;;;;33.28;24.95;;;;;;;15.13;100.00;101846.88;4901222;30;20500;-67
2021/09/04 09:59:02;;;;;;;35.22;24.35;;;;;;;15.13;100.00;101847.72;4908550;30;20031;-66
2021/09/04 10:01:33;;;;;;;34.78;25.42;;;;;;;15.08;100.00;101856.03;4901090;30;20041;-66
2021/09/04 10:04:09;;;;;;;29.55;22.95;;;;;;;15.11;100.00;101851.44;4899301;30;20127;-68
2021/09/04 10:06:40;;;;;;;30.95;24.38;;;;;;;15.14;100.00;101848.53;4902600;30;20557;-66
2021/09/04 10:09:12;;;;;;;31.80;25.23;;;;;;;15.18;100.00;101832.28;4901353;30;20037;-67
2021/09/04 10:11:44;;;;;;;29.88;24.23;;;;;;;15.24;100.00;101846.78;4907968;30;20432;-66
2021/09/04 10:14:15;;;;;;;36.58;26.75;;;;;;;15.28;100.00;101845.53;4908616;30;20083;-66
2021/09/04 10:16:52;;;;;;;35.03;26.25;;;;;;;15.29;100.00;101853.28;4906274;30;20502;-66
2021/09/04 10:19:27;;;;;;;32.72;24.60;;;;;;;15.29;100.00;101852.47;4900896;30;20040;-66
2021/09/04 10:22:05;;;;;;;33.92;25.27;;;;;;;15.35;100.00;101848.47;4906725;30;20029;-66
2021/09/04 10:24:42;;;;;;;34.70;24.50;;;;;;;15.36;100.00;101848.31;4906953;30;20072;-66
2021/09/04 10:27:35;;;;;;;36.55;25.42;;;;;;;15.50;100.00;101845.28;4905239;30;20060;-66
2021/09/04 10:30:24;;;;;;;34.13;26.45;;;;;;;15.67;100.00;101843.78;4905296;30;20396;-67
2021/09/04 10:33:04;;;;;;;33.67;26.23;;;;;;;15.56;100.00;101843.88;4899340;30;20041;-67
2021/09/04 10:35:42;;;;;;;38.08;28.58;;;;;;;15.62;100.00;101845.16;4901988;30;20057;-67
2021/09/04 10:38:22;;;;;;;34.72;26.38;;;;;;;15.73;100.00;101840.59;4904771;30;20037;-67
2021/09/04 10:41:17;;;;;;;34.50;26.67;;;;;;;15.70;100.00;101835.56;4910159;30;20033;-67
2021/09/04 10:43:52;;;;;;;33.10;25.10;;;;;;;15.72;100.00;101846.00;4898182;30;20066;-69
2021/09/04 10:46:25;;;;;;;32.55;25.05;;;;;;;15.64;100.00;101838.72;4902096;30;20029;-66
2021/09/04 10:49:02;;;;;;;35.60;26.40;;;;;;;15.74;100.00;101834.31;4903093;30;20029;-70
2021/09/04 10:51:51;;;;;;;29.63;24.75;;;;;;;15.93;100.00;101830.00;4911056;30;20033;-66
2021/09/04 10:54:40;;;;;;;28.20;23.95;;;;;;;16.07;100.00;101821.63;4905752;30;20041;-66
2021/09/04 10:57:17;;;;;;;28.35;24.52;;;;;;;16.01;100.00;101827.47;4905197;30;20030;-66
2021/09/04 10:59:58;;;;;;;30.27;24.30;;;;;;;16.09;100.00;101830.25;4908116;30;20040;-66
2021/09/04 11:02:45;;;;;;;31.02;25.08;;;;;;;16.16;100.00;101827.88;4901152;30;20128;-67
2021/09/04 11:05:44;;;;;;;30.33;24.35;;;;;;;16.22;100.00;101825.50;4908225;30;20045;-67
2021/09/04 11:08:35;;;;;;;31.58;23.95;;;;;;;16.29;100.00;101831.06;4903736;30;20040;-66
2021/09/04 11:11:24;;;;;;;29.23;24.77;;;;;;;16.34;100.00;101842.03;4903889;30;20037;-66
2021/09/04 11:14:01;;;;;;;32.50;24.73;;;;;;;16.26;100.00;101832.16;4905416;30;20056;-66
2021/09/04 11:16:38;;;;;;;33.30;23.40;;;;;;;16.41;100.00;101837.84;4903721;30;20401;-67
2021/09/04 11:19:18;;;;;;;27.70;23.77;;;;;;;16.50;100.00;101826.38;4908337;30;20113;-71
2021/09/04 11:21:58;;;;;;;30.38;24.77;;;;;;;16.63;100.00;101834.00;4908778;30;20140;-67
2021/09/04 11:24:37;;;;;;;29.25;24.80;;;;;;;16.60;100.00;101828.16;4900885;30;20472;-66
2021/09/04 11:27:17;;;;;;;36.67;24.00;;;;;;;16.53;100.00;101822.63;4907161;30;20021;-67